createdAt,value
2023-02-23T00:01:52.224Z,69.63
2023-02-23T00:04:19.191Z,68.40
2023-02-23T00:06:46.155Z,67.93
2023-02-23T00:09:24.013Z,68.45
2023-02-23T00:11:53.143Z,64.47
2023-02-23T00:14:20.322Z,64.22
2023-02-23T00:16:47.366Z,64.57
2023-02-23T00:19:14.437Z,66.13
2023-02-23T00:21:42.075Z,65.20
2023-02-23T00:24:11.739Z,60.67
2023-02-23T00:29:11.516Z,63.25
2023-02-23T00:31:38.857Z,58.75
2023-02-23T00:34:07.402Z,57.83
2023-02-23T00:36:35.934Z,62.58
2023-02-23T00:39:11.822Z,56.05
2023-02-23T00:41:38.749Z,56.90
2023-02-23T00:44:07.050Z,61.08
2023-02-23T00:46:33.915Z,59.70
2023-02-23T00:49:01.061Z,60.35
2023-02-23T00:51:32.047Z,63.28
2023-02-23T00:54:00.228Z,61.65
2023-02-23T00:56:27.876Z,62.05
2023-02-23T00:58:55.551Z,58.60
2023-02-23T01:01:25.866Z,61.75
2023-02-23T01:03:55.521Z,61.50
2023-02-23T01:06:22.989Z,61.83
2023-02-23T01:08:51.660Z,59.95
2023-02-23T01:11:21.693Z,62.38
2023-02-23T01:13:51.638Z,63.55
2023-02-23T01:16:21.523Z,63.13
2023-02-23T01:18:49.502Z,68.60
2023-02-23T01:21:30.161Z,65.80
2023-02-23T01:23:57.607Z,66.70
2023-02-23T01:26:34.093Z,60.45
2023-02-23T01:29:20.017Z,64.07
2023-02-23T01:31:51.346Z,56.25
2023-02-23T01:34:21.574Z,59.60
2023-02-23T01:36:48.561Z,60.25
2023-02-23T01:39:17.809Z,64.50
2023-02-23T01:41:45.202Z,67.15
2023-02-23T01:44:15.109Z,57.70
2023-02-23T01:46:45.382Z,57.65
2023-02-23T01:49:17.553Z,63.47
2023-02-23T01:51:49.836Z,60.92
2023-02-23T01:54:21.293Z,57.88
2023-02-23T01:56:58.104Z,61.78
2023-02-23T01:59:46.247Z,63.28
2023-02-23T02:02:14.284Z,59.45
2023-02-23T02:04:46.625Z,63.33
2023-02-23T02:07:19.927Z,61.20
2023-02-23T02:10:17.129Z,63.17
2023-02-23T02:12:52.388Z,62.95
2023-02-23T02:15:22.430Z,61.28
2023-02-23T02:21:27.830Z,64.63
2023-02-23T02:24:32.474Z,60.55
2023-02-23T02:27:05.162Z,59.50
2023-02-23T02:29:42.408Z,58.60
2023-02-23T02:32:32.050Z,60.65
2023-02-23T02:35:12.094Z,57.65
2023-02-23T02:38:05.546Z,54.70
2023-02-23T02:41:03.870Z,57.25
2023-02-23T02:43:51.066Z,60.95
2023-02-23T02:46:23.478Z,56.30
2023-02-23T02:49:08.811Z,57.03
2023-02-23T02:51:40.064Z,48.88
2023-02-23T02:54:28.533Z,52.85
2023-02-23T02:57:00.390Z,56.20
2023-02-23T02:59:46.754Z,57.53
2023-02-23T03:02:37.637Z,50.88
2023-02-23T03:05:42.437Z,52.97
2023-02-23T03:08:54.858Z,52.92
2023-02-23T03:11:44.149Z,51.17
2023-02-23T03:14:36.460Z,54.33
2023-02-23T03:17:39.588Z,49.90
2023-02-23T03:20:51.413Z,49.60
2023-02-23T03:23:39.982Z,55.65
2023-02-23T03:26:31.536Z,50.65
2023-02-23T03:29:38.833Z,52.38
2023-02-23T03:32:41.264Z,57.28
2023-02-23T03:36:01.203Z,55.40
2023-02-23T03:38:59.421Z,52.33
2023-02-23T03:41:46.750Z,50.63
2023-02-23T03:44:39.983Z,53.33
2023-02-23T03:47:26.841Z,49.70
2023-02-23T03:50:15.125Z,53.92
2023-02-23T03:53:06.278Z,55.25
2023-02-23T03:55:56.678Z,56.45
2023-02-23T03:58:49.783Z,51.00
2023-02-23T04:01:38.216Z,54.42
2023-02-23T04:04:26.514Z,50.70
2023-02-23T04:07:14.385Z,51.25
2023-02-23T04:09:59.989Z,57.33
2023-02-23T04:12:45.238Z,59.45
2023-02-23T04:15:47.737Z,52.65
2023-02-23T04:18:20.581Z,51.25
2023-02-23T04:20:47.737Z,50.83
2023-02-23T04:23:14.622Z,51.72
2023-02-23T04:25:41.922Z,52.10
2023-02-23T04:28:08.889Z,48.30
2023-02-23T04:30:35.781Z,46.60
2023-02-23T04:33:02.664Z,50.95
2023-02-23T04:35:31.359Z,53.88
2023-02-23T04:37:58.980Z,55.63
2023-02-23T04:40:26.936Z,49.08
2023-02-23T04:42:54.476Z,53.45
2023-02-23T04:45:23.487Z,50.72
2023-02-23T04:47:51.173Z,51.77
2023-02-23T04:50:19.083Z,52.65
2023-02-23T04:52:46.115Z,56.47
2023-02-23T04:55:22.287Z,51.47
2023-02-23T04:57:49.209Z,51.45
2023-02-23T05:00:17.122Z,51.85
2023-02-23T05:02:44.911Z,56.88
2023-02-23T05:05:12.260Z,53.63
2023-02-23T05:07:39.483Z,54.10
2023-02-23T05:10:06.959Z,57.45
2023-02-23T05:12:33.929Z,56.17
2023-02-23T05:15:00.877Z,53.20
2023-02-23T05:17:27.831Z,52.60
2023-02-23T05:19:54.672Z,56.25
2023-02-23T05:22:21.822Z,55.42
2023-02-23T05:24:48.641Z,57.42
2023-02-23T05:27:15.859Z,53.97
2023-02-23T05:29:42.670Z,54.28
2023-02-23T05:32:09.651Z,53.85
2023-02-23T05:34:37.394Z,56.53
2023-02-23T05:37:04.213Z,52.53
2023-02-23T05:39:31.187Z,53.22
2023-02-23T05:41:58.089Z,55.45
2023-02-23T05:44:25.231Z,56.15
2023-02-23T05:46:52.161Z,54.42
2023-02-23T05:49:19.053Z,56.30
2023-02-23T05:51:45.920Z,54.92
2023-02-23T05:54:14.069Z,55.47
2023-02-23T05:56:42.685Z,51.47
2023-02-23T05:59:09.671Z,52.30
2023-02-23T06:01:36.694Z,56.50
2023-02-23T06:04:05.308Z,55.20
2023-02-23T06:06:33.226Z,56.08
2023-02-23T06:09:00.125Z,59.00
2023-02-23T06:11:27.021Z,52.53
2023-02-23T06:13:53.859Z,55.85
2023-02-23T06:16:21.123Z,51.15
2023-02-23T06:18:48.101Z,57.08
2023-02-23T06:21:15.026Z,51.30
2023-02-23T06:23:41.901Z,52.67
2023-02-23T06:26:08.945Z,52.03
2023-02-23T06:28:36.494Z,52.05
2023-02-23T06:31:03.605Z,52.53
2023-02-23T06:33:30.544Z,54.28
2023-02-23T06:35:57.558Z,52.95
2023-02-23T06:38:24.371Z,51.35
2023-02-23T06:40:51.498Z,54.42
2023-02-23T06:43:18.464Z,55.60
2023-02-23T06:45:47.042Z,56.42
2023-02-23T06:48:13.956Z,51.20
2023-02-23T06:50:40.928Z,53.97
2023-02-23T06:53:08.438Z,56.78
2023-02-23T06:55:35.317Z,58.50
2023-02-23T06:58:02.132Z,50.97
2023-02-23T07:00:30.544Z,54.35
2023-02-23T07:02:57.815Z,52.97
2023-02-23T07:05:24.652Z,54.72
2023-02-23T07:07:52.131Z,54.88
2023-02-23T07:10:19.945Z,50.47
2023-02-23T07:12:47.024Z,56.55
2023-02-23T07:15:18.483Z,58.40
2023-02-23T07:17:48.689Z,54.70
2023-02-23T07:20:16.475Z,57.55
2023-02-23T07:22:43.350Z,48.47
2023-02-23T07:25:10.457Z,52.58
2023-02-23T07:27:39.606Z,50.05
2023-02-23T07:30:07.168Z,54.17
2023-02-23T07:32:34.113Z,52.80
2023-02-23T07:35:01.036Z,48.17
2023-02-23T07:37:27.877Z,49.33
2023-02-23T07:39:54.762Z,48.65
2023-02-23T07:42:21.618Z,54.03
2023-02-23T07:44:48.608Z,52.55
2023-02-23T07:47:15.501Z,51.88
2023-02-23T07:49:42.685Z,55.65
2023-02-23T07:52:09.761Z,53.10
2023-02-23T07:54:36.635Z,52.03
2023-02-23T07:57:03.542Z,53.40
2023-02-23T07:59:31.740Z,51.30
2023-02-23T08:01:58.668Z,50.88
2023-02-23T08:04:25.629Z,53.53
2023-02-23T08:06:52.676Z,54.22
2023-02-23T08:09:19.550Z,53.67
2023-02-23T08:11:46.408Z,53.63
2023-02-23T08:14:13.381Z,56.03
2023-02-23T08:16:40.334Z,49.60
2023-02-23T08:19:07.269Z,49.85
2023-02-23T08:21:34.112Z,53.22
2023-02-23T08:24:01.012Z,52.53
2023-02-23T08:26:27.916Z,48.33
2023-02-23T08:28:55.415Z,47.78
2023-02-23T08:31:24.492Z,49.83
2023-02-23T08:33:52.488Z,51.72
2023-02-23T08:36:20.875Z,52.83
2023-02-23T08:38:48.340Z,53.08
2023-02-23T08:41:15.963Z,47.15
2023-02-23T08:43:44.084Z,53.53
2023-02-23T08:46:11.502Z,51.45
2023-02-23T08:48:40.365Z,51.38
2023-02-23T08:51:08.616Z,60.58
2023-02-23T08:53:36.574Z,54.47
2023-02-23T08:56:06.167Z,51.40
2023-02-23T08:58:34.990Z,55.35
2023-02-23T09:01:02.493Z,55.17
2023-02-23T09:03:30.740Z,52.17
2023-02-23T09:06:08.813Z,54.42
2023-02-23T09:08:36.489Z,46.92
2023-02-23T09:11:03.398Z,59.05
2023-02-23T09:13:30.409Z,54.97
2023-02-23T09:15:57.294Z,54.25
2023-02-23T09:18:29.554Z,58.97
2023-02-23T09:20:56.864Z,50.83
2023-02-23T09:23:24.306Z,56.88
2023-02-23T09:25:51.314Z,54.80
2023-02-23T09:28:20.237Z,51.75
2023-02-23T09:30:47.736Z,55.42
2023-02-23T09:33:14.988Z,56.25
2023-02-23T09:35:41.916Z,59.67
2023-02-23T09:38:09.480Z,56.75
2023-02-23T09:40:47.873Z,51.33
2023-02-23T09:43:42.603Z,51.53
2023-02-23T09:46:32.911Z,50.47
2023-02-23T09:49:02.826Z,52.67
2023-02-23T09:54:00.733Z,52.75
2023-02-23T09:56:40.790Z,55.65
2023-02-23T09:59:16.385Z,57.88
2023-02-23T10:01:52.348Z,55.95
2023-02-23T10:04:47.074Z,55.17
2023-02-23T10:07:37.112Z,57.47
2023-02-23T10:10:43.553Z,56.30
2023-02-23T10:13:15.833Z,59.38
2023-02-23T10:15:51.786Z,59.40
2023-02-23T10:19:00.475Z,60.47
2023-02-23T10:21:36.160Z,61.90
2023-02-23T10:24:05.582Z,57.40
2023-02-23T10:26:51.126Z,60.85
2023-02-23T10:29:39.505Z,62.08
2023-02-23T10:32:27.285Z,57.95
2023-02-23T10:34:56.820Z,55.53
2023-02-23T10:37:25.818Z,57.38
2023-02-23T10:39:53.576Z,57.70
2023-02-23T10:42:28.982Z,59.85
2023-02-23T10:44:57.435Z,56.20
2023-02-23T10:47:28.738Z,57.50
2023-02-23T10:49:57.228Z,61.45
2023-02-23T10:52:41.694Z,58.40
2023-02-23T10:55:24.652Z,63.95
2023-02-23T10:58:08.396Z,59.03
2023-02-23T11:00:38.640Z,55.35
2023-02-23T11:03:38.395Z,59.00
2023-02-23T11:08:35.303Z,62.42
2023-02-23T11:11:26.332Z,59.25
2023-02-23T11:13:53.899Z,63.75
2023-02-23T11:16:40.161Z,68.55
2023-02-23T11:19:37.078Z,64.50
2023-02-23T11:22:05.958Z,57.40
2023-02-23T11:24:35.926Z,59.63
2023-02-23T11:27:06.723Z,54.92
2023-02-23T11:29:39.241Z,62.33
2023-02-23T11:32:26.463Z,58.33
2023-02-23T11:35:18.426Z,58.40
2023-02-23T11:37:45.844Z,51.33
2023-02-23T11:40:26.738Z,56.67
2023-02-23T11:42:55.224Z,56.55
2023-02-23T11:45:25.087Z,56.78
2023-02-23T11:47:59.097Z,55.65
2023-02-23T11:50:30.016Z,58.58
2023-02-23T11:53:12.474Z,57.50
2023-02-23T11:55:40.653Z,51.83
2023-02-23T11:58:22.592Z,57.92
2023-02-23T12:01:13.792Z,53.75
2023-02-23T12:03:45.664Z,54.70
2023-02-23T12:06:12.578Z,55.22
2023-02-23T12:08:46.809Z,58.78
2023-02-23T12:11:20.723Z,53.95
2023-02-23T12:13:57.330Z,59.55
2023-02-23T12:16:32.652Z,62.17
2023-02-23T12:19:28.851Z,63.50
2023-02-23T12:22:18.314Z,58.90
2023-02-23T12:24:59.368Z,59.25
2023-02-23T12:27:41.713Z,64.20
2023-02-23T12:30:27.439Z,63.83
2023-02-23T12:33:08.664Z,69.18
2023-02-23T12:35:56.547Z,67.63
2023-02-23T12:38:50.281Z,66.00
2023-02-23T12:41:25.261Z,67.15
2023-02-23T12:44:03.926Z,72.50
2023-02-23T12:46:37.936Z,67.72
2023-02-23T12:49:35.038Z,63.03
2023-02-23T12:52:17.660Z,61.97
2023-02-23T12:54:47.030Z,58.20
2023-02-23T12:57:29.049Z,58.47
2023-02-23T13:00:20.398Z,51.13
2023-02-23T13:03:12.400Z,57.72
2023-02-23T13:05:47.179Z,56.45
2023-02-23T13:08:32.725Z,57.25
2023-02-23T13:11:06.859Z,62.88
2023-02-23T13:13:52.456Z,59.50
2023-02-23T13:16:32.923Z,55.45
2023-02-23T13:19:10.501Z,58.65
2023-02-23T13:21:41.770Z,56.17
2023-02-23T13:24:19.042Z,59.25
2023-02-23T13:27:22.244Z,56.58
2023-02-23T13:29:55.282Z,56.33
2023-02-23T13:32:25.806Z,54.65
2023-02-23T13:34:57.735Z,55.92
2023-02-23T13:37:32.348Z,55.33
2023-02-23T13:40:08.645Z,58.08
2023-02-23T13:42:35.686Z,55.83
2023-02-23T13:45:27.632Z,56.22
2023-02-23T13:48:10.971Z,56.45
2023-02-23T13:50:47.054Z,56.28
2023-02-23T13:53:39.823Z,56.30
2023-02-23T13:56:19.835Z,54.45
2023-02-23T13:58:52.458Z,54.88
2023-02-23T14:01:29.540Z,59.28
2023-02-23T14:03:59.197Z,51.53
2023-02-23T14:06:28.406Z,54.45
2023-02-23T14:09:07.319Z,51.65
2023-02-23T14:11:43.388Z,54.53
2023-02-23T14:14:33.206Z,57.63
2023-02-23T14:17:16.300Z,59.80
2023-02-23T14:20:01.960Z,52.20
2023-02-23T14:22:28.948Z,55.38
2023-02-23T14:25:32.943Z,52.78
2023-02-23T14:28:02.592Z,58.40
2023-02-23T14:30:43.286Z,55.92
2023-02-23T14:33:37.481Z,54.03
2023-02-23T14:36:33.623Z,56.17
2023-02-23T14:39:04.225Z,61.38
2023-02-23T14:41:35.743Z,53.60
2023-02-23T14:44:28.388Z,56.80
2023-02-23T14:47:18.810Z,48.88
2023-02-23T14:49:48.895Z,58.17
2023-02-23T14:52:26.969Z,57.30
2023-02-23T14:55:21.594Z,59.30
2023-02-23T14:57:49.840Z,59.67
2023-02-23T15:00:24.583Z,57.10
2023-02-23T15:03:06.107Z,59.20
2023-02-23T15:05:47.152Z,58.72
2023-02-23T15:08:18.003Z,53.67
2023-02-23T15:10:54.670Z,54.70
2023-02-23T15:13:34.015Z,57.40
2023-02-23T15:16:13.004Z,59.58
2023-02-23T15:18:44.027Z,62.60
2023-02-23T15:21:18.522Z,69.20
2023-02-23T15:23:48.778Z,63.35
2023-02-23T15:26:37.648Z,59.72
2023-02-23T15:29:10.958Z,58.90
2023-02-23T15:31:41.207Z,64.97
2023-02-23T15:34:11.200Z,56.05
2023-02-23T15:39:14.589Z,60.40
2023-02-23T15:41:44.281Z,67.95
2023-02-23T15:44:16.289Z,65.22
2023-02-23T15:46:45.706Z,64.13
2023-02-23T15:49:17.482Z,59.83
2023-02-23T15:51:49.080Z,61.47
2023-02-23T15:54:28.152Z,57.45
2023-02-23T15:57:04.086Z,59.67
2023-02-23T15:59:35.440Z,64.05
2023-02-23T16:02:14.114Z,57.00
2023-02-23T16:04:52.795Z,59.85
2023-02-23T16:07:22.768Z,58.38
2023-02-23T16:10:04.881Z,56.75
2023-02-23T16:12:35.872Z,58.08
2023-02-23T16:15:19.468Z,59.78
2023-02-23T16:17:51.915Z,55.05
2023-02-23T16:20:29.147Z,60.08
2023-02-23T16:22:58.140Z,60.17
2023-02-23T16:25:27.482Z,65.53
2023-02-23T16:28:02.711Z,66.82
2023-02-23T16:30:32.825Z,66.68
2023-02-23T16:33:19.814Z,68.35
2023-02-23T16:35:52.723Z,63.95
2023-02-23T16:38:33.403Z,69.03
2023-02-23T16:41:02.289Z,72.85
2023-02-23T16:43:33.779Z,74.60
2023-02-23T16:46:02.740Z,76.25
2023-02-23T16:48:30.510Z,75.78
2023-02-23T16:50:57.656Z,72.63
2023-02-23T16:53:25.320Z,75.80
2023-02-23T16:56:00.973Z,69.43
2023-02-23T16:58:30.770Z,74.72
2023-02-23T17:03:27.310Z,71.75
2023-02-23T17:05:54.582Z,79.82
2023-02-23T17:08:21.921Z,79.43
2023-02-23T17:10:51.688Z,77.80
2023-02-23T17:13:24.616Z,74.85
2023-02-23T17:15:53.965Z,79.57
2023-02-23T17:18:32.125Z,80.55
2023-02-23T17:21:03.602Z,79.43
2023-02-23T17:23:51.204Z,78.15
2023-02-23T17:26:21.811Z,75.93
2023-02-23T17:28:50.125Z,76.70
2023-02-23T17:31:19.730Z,75.95
2023-02-23T17:33:47.732Z,77.68
2023-02-23T17:36:16.955Z,74.93
2023-02-23T17:38:46.618Z,81.95
2023-02-23T17:43:43.179Z,76.07
2023-02-23T17:46:11.368Z,73.10
2023-02-23T17:48:40.579Z,77.50
2023-02-23T17:51:10.210Z,75.13
2023-02-23T17:53:37.048Z,75.05
2023-02-23T17:56:04.601Z,75.07
2023-02-23T17:58:31.601Z,73.80
2023-02-23T18:01:01.069Z,72.53
2023-02-23T18:03:33.350Z,71.78
2023-02-23T18:06:12.027Z,74.43
2023-02-23T18:08:40.638Z,72.53
2023-02-23T18:11:07.866Z,72.13
2023-02-23T18:13:35.198Z,74.93
2023-02-23T18:16:09.396Z,75.45
2023-02-23T18:18:38.528Z,71.75
2023-02-23T18:21:14.972Z,79.83
2023-02-23T18:23:42.194Z,79.93
2023-02-23T18:26:15.251Z,82.07
2023-02-23T18:28:44.554Z,79.00
2023-02-23T18:31:17.673Z,81.03
2023-02-23T18:33:45.003Z,83.03
2023-02-23T18:36:20.018Z,79.32
2023-02-23T18:38:47.047Z,72.70
2023-02-23T18:41:14.360Z,70.30
2023-02-23T18:43:41.441Z,69.80
2023-02-23T18:46:09.926Z,74.78
2023-02-23T18:48:37.939Z,70.55
2023-02-23T18:51:06.842Z,67.85
2023-02-23T18:53:37.269Z,69.17
2023-02-23T18:56:25.178Z,70.93
2023-02-23T18:58:53.980Z,74.47
2023-02-23T19:01:24.561Z,71.47
2023-02-23T19:03:52.781Z,74.47
2023-02-23T19:06:21.940Z,72.40
2023-02-23T19:08:54.149Z,77.53
2023-02-23T19:11:29.754Z,70.82
2023-02-23T19:13:59.390Z,74.30
2023-02-23T19:16:27.933Z,77.75
2023-02-23T19:18:54.960Z,78.00
2023-02-23T19:21:25.016Z,80.63
2023-02-23T19:23:53.603Z,78.47
2023-02-23T19:26:21.413Z,78.93
2023-02-23T19:28:48.952Z,74.32
2023-02-23T19:31:20.754Z,78.40
2023-02-23T19:33:49.806Z,80.47
2023-02-23T19:36:20.701Z,80.80
2023-02-23T19:38:48.822Z,80.50
2023-02-23T19:41:20.664Z,75.70
2023-02-23T19:43:48.161Z,73.45
2023-02-23T19:46:17.396Z,74.65
2023-02-23T19:48:48.704Z,73.05
2023-02-23T19:51:15.675Z,82.43
2023-02-23T19:53:42.549Z,76.78
2023-02-23T19:56:12.991Z,86.63
2023-02-23T19:58:44.708Z,89.55
2023-02-23T20:01:18.379Z,92.15
2023-02-23T20:03:47.463Z,91.38
2023-02-23T20:06:17.140Z,90.97
2023-02-23T20:08:45.289Z,91.78
2023-02-23T20:11:12.484Z,88.95
2023-02-23T20:13:40.427Z,87.72
2023-02-23T20:16:13.023Z,85.57
2023-02-23T20:18:41.095Z,82.00
2023-02-23T20:21:17.215Z,82.57
2023-02-23T20:23:45.646Z,81.22
2023-02-23T20:26:15.877Z,85.72
2023-02-23T20:28:43.032Z,78.93
2023-02-23T20:31:31.163Z,78.80
2023-02-23T20:34:00.784Z,76.78
2023-02-23T20:36:27.718Z,91.13
2023-02-23T20:38:54.572Z,81.82
2023-02-23T20:41:22.509Z,82.30
2023-02-23T20:43:51.482Z,82.47
2023-02-23T20:46:19.704Z,88.80
2023-02-23T20:48:49.059Z,84.55
2023-02-23T20:51:19.045Z,93.35
2023-02-23T20:53:48.048Z,97.05
2023-02-23T20:56:17.850Z,92.47
2023-02-23T21:01:17.102Z,92.25
2023-02-23T21:03:44.302Z,90.40
2023-02-23T21:06:11.155Z,90.70
2023-02-23T21:08:39.901Z,89.13
2023-02-23T21:11:08.734Z,91.50
2023-02-23T21:13:37.613Z,90.87
2023-02-23T21:16:04.688Z,88.90
2023-02-23T21:18:31.791Z,87.65
2023-02-23T21:21:09.775Z,93.93
2023-02-23T21:23:43.419Z,92.75
2023-02-23T21:26:13.227Z,88.65
2023-02-23T21:31:12.611Z,90.55
2023-02-23T21:33:41.426Z,93.30
2023-02-23T21:36:10.448Z,93.03
2023-02-23T21:38:38.713Z,94.75
2023-02-23T21:41:07.034Z,97.97
2023-02-23T21:43:38.729Z,97.63
2023-02-23T21:46:13.660Z,90.15
2023-02-23T21:48:41.975Z,97.93
2023-02-23T21:51:12.048Z,91.60
2023-02-23T21:53:40.061Z,82.28
2023-02-23T21:56:15.279Z,84.55
2023-02-23T21:58:54.005Z,82.43
2023-02-23T22:01:34.536Z,81.50
2023-02-23T22:04:01.929Z,85.15
2023-02-23T22:06:36.972Z,75.32
2023-02-23T22:09:05.869Z,76.55
2023-02-23T22:11:37.202Z,74.97
2023-02-23T22:14:09.107Z,75.63
2023-02-23T22:16:38.707Z,77.90
2023-02-23T22:19:06.524Z,80.47
2023-02-23T22:21:39.135Z,82.43
2023-02-23T22:24:07.532Z,86.72
2023-02-23T22:26:37.285Z,90.97
2023-02-23T22:31:32.679Z,94.70
2023-02-23T22:33:59.698Z,100.90
2023-02-23T22:36:26.604Z,103.03
2023-02-23T22:38:58.277Z,95.65
2023-02-23T22:41:29.381Z,99.07
2023-02-23T22:43:57.005Z,96.45
2023-02-23T22:46:24.548Z,89.55
2023-02-23T22:48:51.503Z,92.55
2023-02-23T22:51:22.033Z,97.18
2023-02-23T22:53:49.252Z,89.97
2023-02-23T22:56:16.119Z,87.65
2023-02-23T22:58:43.100Z,86.53
2023-02-23T23:01:11.825Z,85.95
2023-02-23T23:03:45.893Z,87.90
2023-02-23T23:06:16.476Z,89.68
2023-02-23T23:08:45.614Z,84.93
2023-02-23T23:11:15.704Z,82.05
2023-02-23T23:13:48.446Z,82.95
2023-02-23T23:16:30.493Z,83.90
2023-02-23T23:19:07.893Z,84.65
2023-02-23T23:21:35.751Z,83.93
2023-02-23T23:24:07.224Z,89.07
2023-02-23T23:26:36.367Z,93.63
2023-02-23T23:29:06.196Z,84.18
2023-02-23T23:31:35.032Z,74.78
2023-02-23T23:34:06.070Z,69.75
2023-02-23T23:36:38.142Z,62.38
2023-02-23T23:39:06.417Z,58.05
2023-02-23T23:41:35.313Z,58.90
2023-02-23T23:44:05.681Z,57.70
2023-02-23T23:46:35.549Z,55.40
2023-02-23T23:49:06.221Z,57.20
2023-02-23T23:51:39.052Z,57.13
2023-02-23T23:54:08.160Z,58.33
2023-02-23T23:56:37.308Z,59.33
2023-02-23T23:59:10.766Z,58.63
